Main page
METAR-TAF:

METAR-TAF

Airports :

Roland Garros Airport

Saint-Denis, Réunion

latitude: 20-53S, longitude: 055-31E, elevation: 21 m

Current weather observation

The report was made 39 minutes ago, at 08:30 UTC
Wind 18 kt from the East/Southeast
Temperature 25°C
Humidity 69%
Pressure 1021 hPa
Visibility 10 km or more
Few clouds at a height of 7000 ft
Overcast at a height of 18000 ft

METAR: FMEE 210830Z AUTO 11018KT 9999 FEW070 OVC180 25/19 Q1021 NOSIG

Time: 13:09 (09:09 UTC)

Forecast

The report was made 4 hours and 9 minutes ago, at 05:00 UTC
Forecast valid from 21 at 06 UTC to 22 at 12 UTC
Wind 13 kt from the East/Southeast
Visibility 10 km or more
Few clouds at a height of 3000 ft
Broken clouds at a height of 6000 ft
Becoming
from 21 at 14 UTC to 21 at 16 UTC
Wind 6 kt from the South
Becoming
from 22 at 04 UTC to 22 at 06 UTC
Wind 10 kt from the East

TAF: FMEE 210500Z 2106/2212 12013KT 9999 FEW030 BKN060 BECMG 2114/2116 17006KT BECMG 2204/2206 08010KT

Weather observations and forecasts of more than 4000 airports (METAR and TAF reports).

The available stations are represented by yellow and red dots on the map.

Hover mouse over dot to see the name of the station.

Then click to see weather observations and forecasts.

To change the map : click on the green buttons with a black cross to zoom in, on the green button with a dash to zoom out, or on the green arrows for adjacent maps.


METAR-TAF: